Time;durP1;ratioP1;P1;durP2;ratioP2;P2;SDS_P1;SDS_P2;PMS_P1;PMS_P2;Temp;Humidity;BMP_temperature;BMP_pressure;BME280_temperature;BME280_humidity;BME280_pressure;Samples;Min_cycle;Max_cycle;Signal;HPM_P1;HPM_P2
2021/08/23 00:00:18;;;;;;;5.17;2.70;;;14.90;99.90;;;;;;1979212;72;21087;-78
2021/08/23 00:02:44;;;;;;;2.83;2.47;;;15.00;99.90;;;;;;1979242;72;21079;-78
2021/08/23 00:05:10;;;;;;;3.17;2.45;;;15.00;99.90;;;;;;1979253;72;21087;-79
2021/08/23 00:07:36;;;;;;;6.17;2.45;;;15.10;99.90;;;;;;1980001;72;21592;-78
2021/08/23 00:10:02;;;;;;;3.33;2.75;;;15.10;99.90;;;;;;1983069;71;21126;-78
2021/08/23 00:12:29;;;;;;;7.45;2.95;;;15.10;99.90;;;;;;1982712;71;21040;-79
2021/08/23 00:14:55;;;;;;;6.12;2.77;;;15.10;99.90;;;;;;1979533;72;21004;-78
2021/08/23 00:17:22;;;;;;;4.70;2.67;;;15.00;99.90;;;;;;1979405;71;21121;-78
2021/08/23 00:19:48;;;;;;;3.20;2.67;;;15.00;99.90;;;;;;1979416;72;21564;-78
2021/08/23 00:22:22;;;;;;;3.50;2.98;;;15.10;99.90;;;;;;1979128;72;21609;-78
2021/08/23 00:24:48;;;;;;;4.33;2.62;;;15.00;99.90;;;;;;1979000;72;21488;-78
2021/08/23 00:27:14;;;;;;;3.20;2.58;;;15.00;99.90;;;;;;1952331;72;21537;-78
2021/08/23 00:29:40;;;;;;;4.45;2.50;;;15.00;99.90;;;;;;1979104;72;21519;-78
2021/08/23 00:32:06;;;;;;;3.75;3.00;;;15.10;99.90;;;;;;1979083;72;21586;-77
2021/08/23 00:34:32;;;;;;;7.00;3.33;;;15.10;99.90;;;;;;1979141;72;21072;-78
2021/08/23 00:36:58;;;;;;;3.70;2.80;;;15.10;99.90;;;;;;1979176;72;21142;-79
2021/08/23 00:39:24;;;;;;;4.58;2.83;;;15.10;99.90;;;;;;1979234;72;21071;-78
2021/08/23 00:41:50;;;;;;;6.53;2.98;;;15.00;99.90;;;;;;1978764;72;21173;-78
2021/08/23 00:44:17;;;;;;;10.93;2.85;;;15.00;99.90;;;;;;1979266;71;21068;-78
2021/08/23 00:46:43;;;;;;;3.52;2.80;;;15.00;99.90;;;;;;1980112;71;21158;-78
2021/08/23 00:49:11;;;;;;;8.50;2.80;;;15.10;99.90;;;;;;1979204;72;21017;-78
2021/08/23 00:51:37;;;;;;;4.22;2.52;;;15.10;99.90;;;;;;1979138;72;21173;-78
2021/08/23 00:54:03;;;;;;;5.05;2.65;;;15.10;99.90;;;;;;1979252;72;21059;-77
2021/08/23 00:56:29;;;;;;;10.35;3.17;;;15.00;99.90;;;;;;1979249;72;21082;-78
2021/08/23 00:58:58;;;;;;;7.97;2.58;;;15.00;99.90;;;;;;1979283;71;21157;-78
2021/08/23 01:01:24;;;;;;;5.15;2.98;;;15.00;99.90;;;;;;1979174;72;21079;-78
2021/08/23 01:03:50;;;;;;;6.62;2.90;;;15.00;99.90;;;;;;1979312;72;21068;-78
2021/08/23 01:06:16;;;;;;;6.08;2.55;;;15.10;99.90;;;;;;1979320;72;21076;-78
2021/08/23 01:08:43;;;;;;;7.05;2.83;;;15.10;99.90;;;;;;1979387;72;21128;-78
2021/08/23 01:11:10;;;;;;;7.75;2.75;;;15.00;99.90;;;;;;1979206;71;21542;-78
2021/08/23 01:13:36;;;;;;;7.22;2.92;;;15.00;99.90;;;;;;1979389;72;21059;-78
2021/08/23 01:16:02;;;;;;;4.55;2.62;;;15.00;99.90;;;;;;1979285;72;21088;-79
2021/08/23 01:18:30;;;;;;;11.10;2.60;;;14.90;99.90;;;;;;1979305;72;21056;-79
2021/08/23 01:21:00;;;;;;;4.40;2.72;;;15.00;99.90;;;;;;1979296;71;21055;-78
2021/08/23 01:23:24;;;;;;;3.67;2.37;;;15.00;99.90;;;;;;1978835;72;21580;-79
2021/08/23 01:25:50;;;;;;;4.55;2.67;;;14.90;99.90;;;;;;1979282;72;21076;-78
2021/08/23 01:28:16;;;;;;;5.85;2.72;;;15.00;99.90;;;;;;1979262;71;21176;-78
2021/08/23 01:30:46;;;;;;;6.35;2.58;;;15.00;99.90;;;;;;1979227;72;21108;-78
2021/08/23 01:33:12;;;;;;;2.75;2.00;;;15.00;99.90;;;;;;1979203;72;21080;-79
2021/08/23 01:35:38;;;;;;;4.42;2.33;;;15.10;99.90;;;;;;1979337;72;21125;-77
2021/08/23 01:38:04;;;;;;;5.35;2.90;;;15.10;99.90;;;;;;1979134;72;21197;-78
2021/08/23 01:40:32;;;;;;;3.85;2.60;;;15.10;99.90;;;;;;1979346;72;21149;-78
2021/08/23 01:42:58;;;;;;;6.03;2.67;;;15.10;99.90;;;;;;1979018;72;21488;-78
2021/08/23 01:45:24;;;;;;;5.50;2.72;;;15.10;99.90;;;;;;1979337;72;21644;-77
2021/08/23 01:47:50;;;;;;;4.40;2.50;;;15.10;99.90;;;;;;1979159;72;21068;-78
2021/08/23 01:50:16;;;;;;;5.87;2.67;;;15.10;99.90;;;;;;1979339;71;21059;-78
2021/08/23 01:52:43;;;;;;;4.72;2.83;;;15.10;99.90;;;;;;1979158;72;21076;-77
2021/08/23 01:55:09;;;;;;;5.75;2.70;;;15.10;99.90;;;;;;1979451;72;21032;-78
2021/08/23 01:57:35;;;;;;;3.80;2.50;;;15.10;99.90;;;;;;1979135;72;21084;-78
2021/08/23 02:00:03;;;;;;;5.55;2.17;;;15.10;99.90;;;;;;1979357;72;21190;-78
2021/08/23 02:02:29;;;;;;;3.02;2.47;;;15.10;99.90;;;;;;1979043;72;21476;-77
2021/08/23 02:04:55;;;;;;;3.15;2.40;;;15.20;99.90;;;;;;1979151;71;21492;-78
2021/08/23 02:07:21;;;;;;;2.37;2.20;;;15.10;99.90;;;;;;1979358;72;21553;-78
2021/08/23 02:09:47;;;;;;;6.22;2.52;;;15.10;99.90;;;;;;1979136;72;21504;-78
2021/08/23 02:12:13;;;;;;;4.10;2.40;;;15.10;99.90;;;;;;1979307;72;21758;-78
2021/08/23 02:14:39;;;;;;;5.58;2.20;;;15.10;99.90;;;;;;1979205;72;21609;-78
2021/08/23 02:17:05;;;;;;;6.70;2.40;;;15.20;99.90;;;;;;1979194;72;21138;-78
2021/08/23 02:19:34;;;;;;;4.45;2.33;;;15.10;99.90;;;;;;1979195;71;21161;-78
2021/08/23 02:21:59;;;;;;;3.55;2.62;;;15.10;99.90;;;;;;1979179;72;21080;-78
2021/08/23 02:24:28;;;;;;;3.47;2.72;;;15.20;99.90;;;;;;1979189;72;21146;-78
2021/08/23 02:26:53;;;;;;;4.67;2.50;;;15.20;99.90;;;;;;1979047;71;21279;-78
2021/08/23 02:29:19;;;;;;;2.80;2.33;;;15.10;99.90;;;;;;1979193;71;21051;-78
2021/08/23 02:31:45;;;;;;;4.37;2.80;;;15.10;99.90;;;;;;1979368;72;21059;-78
2021/08/23 02:34:12;;;;;;;3.12;2.60;;;15.10;99.90;;;;;;1979173;71;21151;-78
2021/08/23 02:36:38;;;;;;;4.00;2.22;;;15.20;99.90;;;;;;1979282;72;21120;-78
2021/08/23 02:39:05;;;;;;;3.47;2.30;;;15.20;99.90;;;;;;1979135;72;21588;-78
2021/08/23 02:41:31;;;;;;;4.65;2.40;;;15.20;99.90;;;;;;1979288;72;21062;-78
2021/08/23 02:43:57;;;;;;;2.45;2.25;;;15.10;99.90;;;;;;1973401;72;21055;-78
2021/08/23 02:46:23;;;;;;;2.45;2.25;;;15.10;99.90;;;;;;1979371;72;21050;-78
2021/08/23 02:48:49;;;;;;;2.55;2.35;;;15.10;99.90;;;;;;1973853;72;21138;-78
2021/08/23 02:51:15;;;;;;;18.95;2.85;;;15.00;99.90;;;;;;1980800;72;21136;-78
2021/08/23 02:53:41;;;;;;;10.25;2.47;;;15.10;99.90;;;;;;1978785;72;21120;-78
2021/08/23 02:56:09;;;;;;;5.30;2.62;;;15.10;99.90;;;;;;1979039;71;21173;-78
2021/08/23 02:58:35;;;;;;;3.10;2.25;;;15.10;99.90;;;;;;1979172;72;21079;-78
2021/08/23 03:01:01;;;;;;;3.70;2.30;;;15.20;99.90;;;;;;1978747;71;21059;-78
2021/08/23 03:03:27;;;;;;;5.60;2.62;;;15.10;99.90;;;;;;1973798;71;21091;-78
2021/08/23 03:05:54;;;;;;;7.87;2.70;;;15.10;99.90;;;;;;1975057;72;21110;-78
2021/08/23 03:08:20;;;;;;;2.45;2.25;;;15.20;99.90;;;;;;1973637;72;21097;-78
2021/08/23 03:10:46;;;;;;;3.40;2.47;;;15.20;99.90;;;;;;1979300;72;21063;-78
2021/08/23 03:13:12;;;;;;;3.30;2.30;;;15.10;99.90;;;;;;1979076;72;21153;-79
2021/08/23 03:15:38;;;;;;;3.95;2.62;;;15.20;99.90;;;;;;1979299;72;21148;-78
2021/08/23 03:18:04;;;;;;;5.17;2.60;;;15.20;99.90;;;;;;1979213;72;21134;-78
2021/08/23 03:20:30;;;;;;;4.08;2.40;;;15.30;99.90;;;;;;1974744;72;21605;-78
2021/08/23 03:22:56;;;;;;;3.92;2.27;;;15.30;99.90;;;;;;1974543;72;21484;-78
2021/08/23 03:25:22;;;;;;;5.95;2.30;;;15.30;99.90;;;;;;1979179;72;21601;-78
2021/08/23 03:27:49;;;;;;;3.52;2.37;;;15.40;99.90;;;;;;1979186;72;21569;-78
2021/08/23 03:30:15;;;;;;;4.08;2.60;;;15.40;99.90;;;;;;1979071;71;21507;-78
2021/08/23 03:32:41;;;;;;;5.15;2.80;;;15.40;99.90;;;;;;1979046;72;21597;-78
2021/08/23 03:35:07;;;;;;;4.50;2.62;;;15.40;99.90;;;;;;1979172;72;21484;-78
2021/08/23 03:37:33;;;;;;;7.08;2.77;;;15.30;99.90;;;;;;1979185;71;21107;-78
2021/08/23 03:39:59;;;;;;;6.47;2.62;;;15.30;99.90;;;;;;1979184;72;21110;-78
2021/08/23 03:42:25;;;;;;;3.40;2.45;;;15.30;99.90;;;;;;1979282;72;21051;-78
2021/08/23 03:44:52;;;;;;;5.42;2.70;;;15.30;99.90;;;;;;1979269;72;21133;-78
2021/08/23 03:47:18;;;;;;;7.50;2.90;;;15.30;99.90;;;;;;1979208;72;21068;-78
2021/08/23 03:49:44;;;;;;;5.42;2.37;;;15.30;99.90;;;;;;1979287;72;21098;-78
2021/08/23 03:52:10;;;;;;;2.47;2.27;;;15.30;99.90;;;;;;1979123;72;21088;-78
2021/08/23 03:54:36;;;;;;;3.58;2.22;;;15.30;99.90;;;;;;1979183;72;21161;-78
2021/08/23 03:57:02;;;;;;;3.70;2.15;;;15.20;99.90;;;;;;1979270;72;21028;-78
2021/08/23 03:59:28;;;;;;;6.85;2.37;;;15.20;99.90;;;;;;1979035;72;21075;-78
2021/08/23 04:01:55;;;;;;;3.75;2.10;;;15.20;99.90;;;;;;1979188;72;21094;-78
2021/08/23 04:04:22;;;;;;;3.92;2.42;;;15.10;99.90;;;;;;1979086;72;21080;-78
2021/08/23 04:06:48;;;;;;;5.83;2.58;;;15.20;99.90;;;;;;1979386;72;21055;-78
2021/08/23 04:09:14;;;;;;;2.77;2.15;;;15.30;99.90;;;;;;1979355;72;21098;-78
2021/08/23 04:11:40;;;;;;;5.58;2.35;;;15.30;99.90;;;;;;1979310;72;21132;-78
2021/08/23 04:14:07;;;;;;;4.20;2.58;;;15.30;99.90;;;;;;1979374;72;21051;-78
2021/08/23 04:16:34;;;;;;;2.60;2.00;;;15.30;99.90;;;;;;1979228;72;21131;-78
2021/08/23 04:19:00;;;;;;;3.40;2.12;;;15.30;99.90;;;;;;1979029;72;21076;-78
2021/08/23 04:21:26;;;;;;;3.40;2.30;;;15.30;99.90;;;;;;1979210;72;21072;-78
2021/08/23 04:23:52;;;;;;;3.50;2.05;;;15.30;99.90;;;;;;1979042;71;21072;-78
2021/08/23 04:26:18;;;;;;;4.92;2.47;;;15.30;99.90;;;;;;1979302;71;21060;-78
2021/08/23 04:28:44;;;;;;;3.70;2.35;;;15.30;99.90;;;;;;1979241;72;21115;-78
2021/08/23 04:31:10;;;;;;;3.62;2.27;;;15.20;99.90;;;;;;1979381;72;21124;-77
2021/08/23 04:33:36;;;;;;;6.42;2.70;;;15.20;99.90;;;;;;1979355;72;21161;-77
2021/08/23 04:36:03;;;;;;;4.40;2.70;;;15.30;99.90;;;;;;1981991;71;21016;-78
2021/08/23 04:38:29;;;;;;;9.33;2.65;;;15.20;99.90;;;;;;1983143;71;20989;-78
2021/08/23 04:40:55;;;;;;;4.33;2.00;;;15.30;99.90;;;;;;1953243;72;21384;-78
2021/08/23 04:43:22;;;;;;;2.50;2.10;;;15.30;99.90;;;;;;1979744;72;21588;-77
2021/08/23 04:45:50;;;;;;;5.87;2.70;;;15.30;99.90;;;;;;1979280;72;21219;-78
2021/08/23 04:48:16;;;;;;;3.02;2.00;;;15.30;99.90;;;;;;1979052;72;21076;-78
2021/08/23 04:50:42;;;;;;;2.25;1.85;;;15.30;99.90;;;;;;1979377;72;21047;-78
2021/08/23 04:53:08;;;;;;;2.10;1.67;;;15.40;99.90;;;;;;1979309;71;21076;-78
2021/08/23 04:55:34;;;;;;;3.65;1.85;;;15.30;99.90;;;;;;1979291;72;21160;-78
2021/08/23 04:58:00;;;;;;;3.22;2.45;;;15.40;99.90;;;;;;1979277;72;21076;-78
2021/08/23 05:00:26;;;;;;;4.53;2.77;;;15.40;99.90;;;;;;1979281;71;21138;-78
2021/08/23 05:02:53;;;;;;;2.35;2.15;;;15.30;99.90;;;;;;1979380;72;21035;-78
2021/08/23 05:05:19;;;;;;;3.98;2.15;;;15.40;99.90;;;;;;1979381;72;21125;-78
2021/08/23 05:07:45;;;;;;;2.50;2.30;;;15.50;99.90;;;;;;1979317;72;21051;-78
2021/08/23 05:10:11;;;;;;;3.95;2.05;;;15.50;99.90;;;;;;1978752;72;21129;-78
2021/08/23 05:12:37;;;;;;;4.67;2.45;;;15.50;99.90;;;;;;1979360;72;21055;-78
2021/08/23 05:15:03;;;;;;;2.42;2.22;;;15.50;99.90;;;;;;1979295;72;21153;-78
2021/08/23 05:17:29;;;;;;;6.15;2.55;;;15.50;99.90;;;;;;1979393;72;21027;-77
2021/08/23 05:19:55;;;;;;;3.15;2.30;;;15.50;99.90;;;;;;1979261;72;21145;-77
2021/08/23 05:22:22;;;;;;;3.40;2.12;;;15.60;99.90;;;;;;1979249;71;21149;-77
2021/08/23 05:24:49;;;;;;;3.65;2.55;;;15.50;99.90;;;;;;1979305;72;21076;-77
2021/08/23 05:27:15;;;;;;;5.37;2.70;;;15.60;99.90;;;;;;1974329;72;21063;-77
2021/08/23 05:29:43;;;;;;;6.37;2.25;;;15.60;99.90;;;;;;1979334;72;21080;-78
2021/08/23 05:32:09;;;;;;;2.67;2.00;;;15.60;99.90;;;;;;1975031;72;21132;-78
2021/08/23 05:34:35;;;;;;;2.92;2.10;;;15.60;99.90;;;;;;1973380;72;21040;-79
2021/08/23 05:37:01;;;;;;;6.17;2.15;;;15.60;99.90;;;;;;1971508;72;21086;-78
2021/08/23 05:39:27;;;;;;;3.47;2.10;;;15.60;99.90;;;;;;1979611;72;21048;-78
2021/08/23 05:41:54;;;;;;;2.87;2.20;;;15.60;99.90;;;;;;1979910;72;21337;-79
2021/08/23 05:44:20;;;;;;;3.80;2.62;;;15.70;99.90;;;;;;1979525;72;21047;-79
2021/08/23 05:46:46;;;;;;;2.37;2.15;;;15.80;99.90;;;;;;1980377;71;21376;-78
2021/08/23 05:49:12;;;;;;;6.78;2.80;;;15.80;99.90;;;;;;1983182;71;21048;-78
2021/08/23 05:51:38;;;;;;;3.83;2.20;;;15.80;99.90;;;;;;1981615;72;21051;-78
2021/08/23 05:54:04;;;;;;;4.50;2.12;;;15.90;99.90;;;;;;1982026;72;21092;-77
2021/08/23 05:56:30;;;;;;;2.37;2.15;;;15.90;99.90;;;;;;1980903;72;21093;-79
2021/08/23 05:58:56;;;;;;;6.85;2.37;;;15.90;99.90;;;;;;1979328;72;21170;-78
2021/08/23 06:01:23;;;;;;;5.75;2.25;;;15.90;99.90;;;;;;1979355;72;21088;-78
2021/08/23 06:03:49;;;;;;;3.58;2.22;;;15.90;99.90;;;;;;1979413;72;21121;-78
2021/08/23 06:06:17;;;;;;;3.87;2.67;;;15.90;99.90;;;;;;1979627;72;21091;-78
2021/08/23 06:08:43;;;;;;;4.15;2.35;;;16.00;99.90;;;;;;1979677;72;21080;-77
2021/08/23 06:11:10;;;;;;;3.15;2.12;;;16.10;99.90;;;;;;1980053;72;21531;-78
2021/08/23 06:13:37;;;;;;;2.67;2.00;;;16.20;99.90;;;;;;1980348;71;21492;-78
2021/08/23 06:16:03;;;;;;;5.12;2.25;;;16.20;99.90;;;;;;1982699;72;21068;-78
2021/08/23 06:18:29;;;;;;;2.22;2.00;;;16.30;99.90;;;;;;1983262;71;21088;-77
2021/08/23 06:20:57;;;;;;;3.12;2.65;;;16.30;99.90;;;;;;1983281;71;21130;-78
2021/08/23 06:23:23;;;;;;;4.62;2.30;;;16.20;99.90;;;;;;1982045;71;21076;-78
2021/08/23 06:25:49;;;;;;;3.67;2.10;;;16.30;99.90;;;;;;1979578;71;21055;-78
2021/08/23 06:28:15;;;;;;;3.02;2.08;;;16.50;99.90;;;;;;1979365;72;21596;-78
2021/08/23 06:30:42;;;;;;;3.20;2.10;;;16.70;99.90;;;;;;1979474;72;21036;-78
2021/08/23 06:33:08;;;;;;;2.52;2.00;;;16.80;99.90;;;;;;1979548;72;21052;-79
2021/08/23 06:35:34;;;;;;;3.17;2.10;;;16.90;99.90;;;;;;1979445;72;21188;-78
2021/08/23 06:38:00;;;;;;;22.55;2.02;;;17.00;99.90;;;;;;1979414;72;21120;-78
2021/08/23 06:40:26;;;;;;;3.95;2.50;;;17.10;99.90;;;;;;1979500;72;21032;-78
2021/08/23 06:42:52;;;;;;;2.92;1.92;;;17.20;99.90;;;;;;1979469;72;21133;-78
2021/08/23 06:45:19;;;;;;;3.65;1.85;;;17.20;99.90;;;;;;1979498;72;21055;-78
2021/08/23 06:47:45;;;;;;;2.42;1.87;;;17.10;99.90;;;;;;1979189;72;21584;-78
2021/08/23 06:50:11;;;;;;;3.33;1.98;;;17.40;99.90;;;;;;1979082;72;21507;-79
2021/08/23 06:52:39;;;;;;;7.17;2.15;;;17.60;99.90;;;;;;1979292;72;21471;-78
2021/08/23 06:55:05;;;;;;;5.90;2.10;;;17.40;99.90;;;;;;1979123;72;21189;-78
2021/08/23 06:57:31;;;;;;;3.98;1.80;;;17.40;99.90;;;;;;1979321;72;21047;-78
2021/08/23 06:59:57;;;;;;;2.65;1.70;;;17.50;99.90;;;;;;1979153;72;21157;-78
2021/08/23 07:02:23;;;;;;;2.02;1.85;;;17.40;99.90;;;;;;1979309;72;21039;-78
2021/08/23 07:04:50;;;;;;;3.50;1.70;;;17.50;99.90;;;;;;1977433;71;21157;-78
2021/08/23 07:07:16;;;;;;;5.33;2.10;;;17.60;99.90;;;;;;1976818;72;21113;-78
2021/08/23 07:09:42;;;;;;;3.22;1.90;;;17.80;99.90;;;;;;1979197;72;21072;-78
2021/08/23 07:12:08;;;;;;;5.12;2.20;;;17.90;99.90;;;;;;1979147;72;21091;-78
2021/08/23 07:14:36;;;;;;;3.83;1.82;;;18.10;99.90;;;;;;1979275;72;21071;-78
2021/08/23 07:17:02;;;;;;;3.52;2.02;;;18.00;99.90;;;;;;1979197;72;21150;-78
2021/08/23 07:19:28;;;;;;;14.33;2.12;;;18.10;99.90;;;;;;1979084;72;21084;-78
2021/08/23 07:21:54;;;;;;;3.08;1.98;;;18.10;99.90;;;;;;1979272;72;21098;-78
2021/08/23 07:24:20;;;;;;;4.22;1.80;;;18.00;99.90;;;;;;1979086;72;21138;-78
2021/08/23 07:26:46;;;;;;;4.10;1.95;;;17.90;99.90;;;;;;1979201;72;21142;-78
2021/08/23 07:29:13;;;;;;;6.42;1.85;;;17.70;99.90;;;;;;1979166;72;21068;-77
2021/08/23 07:31:39;;;;;;;4.45;1.98;;;17.60;99.90;;;;;;1979081;72;21177;-78
2021/08/23 07:34:05;;;;;;;4.80;2.10;;;17.50;99.90;;;;;;1979214;72;21495;-77
2021/08/23 07:36:31;;;;;;;4.17;1.92;;;17.70;99.90;;;;;;1979203;72;21540;-78
2021/08/23 07:38:57;;;;;;;3.42;1.65;;;18.10;99.90;;;;;;1979359;72;21494;-78
2021/08/23 07:41:23;;;;;;;4.42;1.87;;;18.30;99.90;;;;;;1979113;72;21501;-78
2021/08/23 07:43:49;;;;;;;4.47;1.70;;;18.40;99.90;;;;;;1979220;71;21500;-78
2021/08/23 07:46:16;;;;;;;3.33;2.05;;;18.60;99.90;;;;;;1979186;72;21603;-77
2021/08/23 07:48:44;;;;;;;4.10;1.87;;;18.70;99.90;;;;;;1979232;71;21563;-77
2021/08/23 07:51:10;;;;;;;2.25;1.45;;;18.70;99.90;;;;;;1978997;71;21146;-78
2021/08/23 07:53:36;;;;;;;6.12;1.67;;;18.70;99.90;;;;;;1979200;72;21083;-78
2021/08/23 07:56:02;;;;;;;2.75;1.60;;;18.80;99.90;;;;;;1979201;71;21080;-78
2021/08/23 07:58:28;;;;;;;4.28;1.75;;;18.70;99.90;;;;;;1979800;72;21076;-78
2021/08/23 08:00:56;;;;;;;4.35;2.00;;;18.80;99.90;;;;;;1979933;72;21099;-78
2021/08/23 08:03:22;;;;;;;5.15;2.05;;;19.10;99.90;;;;;;1980085;72;21023;-75
2021/08/23 08:05:48;;;;;;;5.53;1.50;;;19.40;99.90;;;;;;1980018;72;21121;-77
2021/08/23 08:08:14;;;;;;;1.55;1.20;;;19.30;99.90;;;;;;1980057;72;21479;-77
2021/08/23 08:10:40;;;;;;;2.47;1.60;;;19.60;99.90;;;;;;1980309;72;21566;-79
2021/08/23 08:13:07;;;;;;;5.60;1.98;;;19.70;99.90;;;;;;1980627;72;21532;-78
2021/08/23 08:15:33;;;;;;;2.55;1.52;;;19.90;99.90;;;;;;1980240;71;21108;-77
2021/08/23 08:17:59;;;;;;;1.50;1.37;;;19.90;99.90;;;;;;1980142;72;21140;-78
2021/08/23 08:20:26;;;;;;;3.22;1.45;;;20.20;99.90;;;;;;1979937;72;21193;-76
2021/08/23 08:22:52;;;;;;;1.52;1.42;;;20.10;99.90;;;;;;1979928;72;21028;-77
2021/08/23 08:25:18;;;;;;;2.17;1.25;;;19.90;99.90;;;;;;1980001;72;21080;-77
2021/08/23 08:27:44;;;;;;;2.25;1.60;;;19.80;99.90;;;;;;1980307;71;21147;-78
2021/08/23 08:30:14;;;;;;;3.87;1.87;;;19.90;99.90;;;;;;1980007;72;21208;-78
2021/08/23 08:32:38;;;;;;;2.00;1.50;;;19.70;99.90;;;;;;1979771;72;21039;-79
2021/08/23 08:35:06;;;;;;;11.75;1.70;;;19.40;99.90;;;;;;1980121;72;21516;-78
2021/08/23 08:37:32;;;;;;;4.47;1.60;;;19.30;99.90;;;;;;1980168;72;21557;-78
2021/08/23 08:39:59;;;;;;;2.55;1.77;;;19.40;99.90;;;;;;1980129;71;21051;-77
2021/08/23 08:42:26;;;;;;;2.02;1.37;;;19.40;99.90;;;;;;1980127;72;21039;-78
2021/08/23 08:44:52;;;;;;;3.35;1.30;;;19.50;99.90;;;;;;1980186;72;20988;-80
2021/08/23 08:47:18;;;;;;;3.62;1.72;;;19.70;99.90;;;;;;1980234;72;21076;-76
2021/08/23 08:49:44;;;;;;;3.72;1.65;;;19.70;99.90;;;;;;1980011;72;21431;-79
2021/08/23 08:52:10;;;;;;;3.35;1.65;;;19.70;99.90;;;;;;1980042;72;21056;-79
2021/08/23 08:54:38;;;;;;;3.27;1.92;;;19.60;99.90;;;;;;1979850;72;21160;-79
2021/08/23 08:57:04;;;;;;;12.05;1.70;;;19.70;99.90;;;;;;1980107;72;21105;-78
2021/08/23 08:59:30;;;;;;;2.27;1.60;;;19.70;99.90;;;;;;1980013;72;21109;-77
2021/08/23 09:01:56;;;;;;;1.70;1.57;;;19.80;99.90;;;;;;1981448;71;21023;-76
2021/08/23 09:04:22;;;;;;;7.72;1.98;;;19.80;99.90;;;;;;1982820;71;21009;-77
2021/08/23 09:06:48;;;;;;;3.12;1.67;;;19.70;99.90;;;;;;1982438;71;21060;-78
2021/08/23 09:09:14;;;;;;;3.17;1.67;;;19.50;99.90;;;;;;1979945;72;21127;-77
2021/08/23 09:11:42;;;;;;;1.75;1.57;;;19.20;99.90;;;;;;1979417;72;21200;-78
2021/08/23 09:14:08;;;;;;;5.25;1.72;;;19.20;99.90;;;;;;1979547;71;21138;-78
2021/08/23 09:19:19;;;;;;;2.45;1.50;;;19.00;99.90;;;;;;1931348;74;21159;-78
2021/08/23 09:21:45;;;;;;;2.80;1.77;;;19.10;99.90;;;;;;1932357;74;21105;-78
2021/08/23 09:24:12;;;;;;;1.60;1.42;;;19.30;99.90;;;;;;1931229;74;21418;-78
2021/08/23 09:29:23;;;;;;;1.98;1.57;;;19.80;99.90;;;;;;1907382;75;21131;-78
2021/08/23 09:31:49;;;;;;;3.08;1.82;;;20.10;99.90;;;;;;1914111;75;21160;-78
2021/08/23 09:34:17;;;;;;;2.77;1.60;;;20.30;99.90;;;;;;1886091;76;21059;-78
2021/08/23 09:36:43;;;;;;;2.45;1.50;;;20.20;99.90;;;;;;1920650;74;21556;-78
2021/08/23 09:39:11;;;;;;;3.92;1.55;;;20.20;99.90;;;;;;1915797;73;21462;-78
2021/08/23 09:41:40;;;;;;;2.55;1.67;;;20.10;99.90;;;;;;1918559;75;21066;-78
2021/08/23 09:44:04;;;;;;;4.28;1.62;;;20.30;99.90;;;;;;1885975;76;21070;-78
2021/08/23 09:46:33;;;;;;;3.72;1.92;;;20.20;99.90;;;;;;1919892;73;21168;-78
2021/08/23 09:49:02;;;;;;;3.58;1.70;;;20.20;99.90;;;;;;1910243;75;21138;-78
2021/08/23 09:51:27;;;;;;;1.45;1.20;;;20.50;99.90;;;;;;1909873;75;21084;-78
2021/08/23 09:53:55;;;;;;;7.80;1.80;;;20.60;99.90;;;;;;1910292;75;21060;-78
2021/08/23 09:56:21;;;;;;;2.80;1.62;;;20.20;99.90;;;;;;1910330;75;21075;-78
2021/08/23 09:58:47;;;;;;;3.45;1.77;;;20.30;99.90;;;;;;1910053;75;21071;-77
2021/08/23 10:01:13;;;;;;;2.90;1.80;;;20.80;99.90;;;;;;1910232;75;21071;-78
2021/08/23 10:03:40;;;;;;;3.12;1.60;;;20.80;99.90;;;;;;1910060;74;21036;-77
2021/08/23 10:06:06;;;;;;;3.67;1.67;;;21.20;99.90;;;;;;1910318;75;21040;-78
2021/08/23 10:08:32;;;;;;;3.85;1.92;;;21.70;99.90;;;;;;1910242;75;21487;-78
2021/08/23 10:11:01;;;;;;;4.87;1.52;;;21.70;99.90;;;;;;1911720;75;21063;-78
2021/08/23 10:13:28;;;;;;;2.92;2.12;;;21.70;99.90;;;;;;1911163;75;21131;-78
2021/08/23 10:15:56;;;;;;;2.80;1.57;;;21.40;99.90;;;;;;1910018;75;21149;-76
2021/08/23 10:18:24;;;;;;;4.37;1.98;;;21.30;99.90;;;;;;1910343;74;21067;-76
2021/08/23 10:20:50;;;;;;;3.08;1.62;;;21.20;99.90;;;;;;1910321;75;21505;-77
2021/08/23 10:23:16;;;;;;;2.75;1.67;;;21.00;99.90;;;;;;1910415;75;21035;-77
2021/08/23 10:25:43;;;;;;;2.20;1.57;;;20.90;99.90;;;;;;1910265;75;21079;-78
2021/08/23 10:28:09;;;;;;;6.55;1.70;;;20.80;99.90;;;;;;1912577;74;21123;-77
2021/08/23 10:30:37;;;;;;;2.70;2.10;;;20.40;99.90;;;;;;1913780;74;21105;-77
2021/08/23 10:33:03;;;;;;;3.75;1.50;;;19.90;99.90;;;;;;1913648;74;21067;-78
2021/08/23 10:35:29;;;;;;;2.87;1.82;;;19.80;99.90;;;;;;1914019;74;21013;-78
2021/08/23 10:37:55;;;;;;;1.98;1.67;;;19.50;99.90;;;;;;1913634;74;21248;-77
2021/08/23 10:40:22;;;;;;;2.67;1.80;;;19.30;99.90;;;;;;1913767;74;21107;-77
2021/08/23 10:42:48;;;;;;;2.98;1.90;;;19.30;99.90;;;;;;1913675;75;21024;-76
2021/08/23 10:45:15;;;;;;;3.15;1.82;;;19.40;99.90;;;;;;1913090;75;21035;-77
2021/08/23 10:47:43;;;;;;;10.95;1.95;;;19.50;99.90;;;;;;1914283;74;21143;-76
2021/08/23 10:50:09;;;;;;;2.70;1.92;;;19.70;99.90;;;;;;1912096;75;21088;-77
2021/08/23 10:52:38;;;;;;;4.42;1.75;;;19.80;99.90;;;;;;1911421;75;21148;-76
2021/08/23 10:55:05;;;;;;;2.77;1.90;;;20.10;99.90;;;;;;1911846;75;21079;-76
2021/08/23 10:57:31;;;;;;;2.25;2.02;;;20.20;99.90;;;;;;1911423;75;21153;-76
2021/08/23 10:59:58;;;;;;;4.97;2.02;;;20.40;99.90;;;;;;1911324;75;21063;-77
2021/08/23 11:02:24;;;;;;;4.78;2.20;;;20.60;99.90;;;;;;1910738;74;21133;-77
2021/08/23 11:04:50;;;;;;;2.45;1.80;;;20.70;99.90;;;;;;1910776;75;21211;-76
2021/08/23 11:07:17;;;;;;;6.22;2.35;;;21.10;99.90;;;;;;1910607;75;21039;-76
2021/08/23 11:09:43;;;;;;;5.03;1.90;;;21.70;99.90;;;;;;1910690;75;21495;-76
2021/08/23 11:12:09;;;;;;;2.40;1.92;;;22.00;99.90;;;;;;1910568;75;21589;-75
2021/08/23 11:14:35;;;;;;;3.25;1.90;;;21.90;99.90;;;;;;1900457;75;21490;-77
2021/08/23 11:17:02;;;;;;;3.10;1.80;;;22.20;99.90;;;;;;1911699;74;21098;-76
2021/08/23 11:19:30;;;;;;;1.42;1.30;;;22.00;99.90;;;;;;1909774;75;21106;-76
2021/08/23 11:21:56;;;;;;;2.87;1.60;;;21.70;99.90;;;;;;1905852;75;21074;-77
2021/08/23 11:24:23;;;;;;;1.52;1.27;;;21.70;99.90;;;;;;1911245;75;21071;-77
2021/08/23 11:26:49;;;;;;;2.52;1.40;;;21.70;99.90;;;;;;1905594;75;21145;-76
2021/08/23 11:29:15;;;;;;;2.15;1.22;;;21.60;99.90;;;;;;1910008;75;21071;-76
2021/08/23 11:31:41;;;;;;;2.12;1.35;;;21.10;99.90;;;;;;1910157;75;21083;-76
2021/08/23 11:34:07;;;;;;;2.58;1.15;;;20.80;99.90;;;;;;1885140;75;21066;-76
2021/08/23 11:36:34;;;;;;;2.95;1.37;;;20.90;99.90;;;;;;1910149;75;21044;-77
2021/08/23 11:39:00;;;;;;;1.02;1.02;;;21.00;99.90;;;;;;1910052;75;21495;-77
2021/08/23 11:41:27;;;;;;;3.12;1.52;;;21.00;99.90;;;;;;1909809;75;21564;-77
2021/08/23 11:43:55;;;;;;;2.20;1.32;;;21.10;99.90;;;;;;1909990;75;21075;-77
2021/08/23 11:46:20;;;;;;;2.22;1.50;;;21.30;99.90;;;;;;1909761;75;21182;-77
2021/08/23 11:48:47;;;;;;;1.90;1.22;;;21.40;99.90;;;;;;1909986;74;21079;-77
2021/08/23 11:51:13;;;;;;;1.70;1.37;;;21.60;99.90;;;;;;1909837;75;21088;-77
2021/08/23 11:53:39;;;;;;;3.55;1.15;;;21.60;99.90;;;;;;1910135;74;21090;-77
2021/08/23 11:56:05;;;;;;;2.22;1.50;;;21.70;99.90;;;;;;1910063;75;21428;-77
2021/08/23 11:58:31;;;;;;;2.65;1.22;;;21.70;99.90;;;;;;1910046;75;21499;-77
2021/08/23 12:00:57;;;;;;;1.55;1.27;;;21.50;99.90;;;;;;1910082;75;21156;-77
2021/08/23 12:03:24;;;;;;;1.35;1.25;;;21.60;99.90;;;;;;1910374;75;21152;-77
2021/08/23 12:05:50;;;;;;;1.95;1.10;;;21.70;99.90;;;;;;1909953;75;21352;-77
2021/08/23 12:08:16;;;;;;;2.85;1.27;;;22.10;99.90;;;;;;1910212;75;21008;-77
2021/08/23 12:10:42;;;;;;;0.70;0.70;;;22.50;99.90;;;;;;1909992;75;21078;-77
2021/08/23 12:13:08;;;;;;;5.22;1.07;;;22.80;99.90;;;;;;1909940;75;21079;-77
2021/08/23 12:15:34;;;;;;;1.25;1.20;;;23.60;99.90;;;;;;1909869;74;21078;-77
2021/08/23 12:18:01;;;;;;;0.98;0.82;;;24.60;99.90;;;;;;1910189;75;21087;-76
2021/08/23 12:20:27;;;;;;;1.05;0.82;;;24.80;99.90;;;;;;1910036;74;21075;-77
2021/08/23 12:22:53;;;;;;;0.75;0.75;;;24.40;99.90;;;;;;1910228;75;21490;-77
2021/08/23 12:25:19;;;;;;;1.15;0.93;;;24.90;99.90;;;;;;1910417;75;21051;-77
2021/08/23 12:27:45;;;;;;;2.25;1.00;;;25.10;99.90;;;;;;1910268;75;21514;-77
2021/08/23 12:30:11;;;;;;;1.50;1.17;;;25.20;99.90;;;;;;1909951;75;21500;-77
2021/08/23 12:32:37;;;;;;;1.27;0.90;;;25.60;99.90;;;;;;1912812;74;21433;-77
2021/08/23 12:35:03;;;;;;;0.62;0.60;;;25.60;99.90;;;;;;1913737;74;21181;-77
2021/08/23 12:37:30;;;;;;;1.47;1.05;;;26.20;99.90;;;;;;1911749;74;21113;-77
2021/08/23 12:39:56;;;;;;;1.00;0.90;;;25.00;99.90;;;;;;1909804;75;21083;-77
2021/08/23 12:42:22;;;;;;;0.70;0.70;;;24.90;99.90;;;;;;1909809;75;21468;-77
2021/08/23 12:44:49;;;;;;;1.25;0.90;;;25.50;99.90;;;;;;1909978;74;21546;-77